createdAt,value
2018-06-20T00:00:48.893Z,22.80
2018-06-20T00:03:16.291Z,22.80
2018-06-20T00:05:43.677Z,22.80
2018-06-20T00:08:11.099Z,22.80
2018-06-20T00:10:38.503Z,22.80
2018-06-20T00:13:05.887Z,22.70
2018-06-20T00:15:33.286Z,22.70
2018-06-20T00:18:00.724Z,22.70
2018-06-20T00:20:28.135Z,22.70
2018-06-20T00:22:55.540Z,22.70
2018-06-20T00:25:22.949Z,22.70
2018-06-20T00:27:50.496Z,22.70
2018-06-20T00:30:17.899Z,22.70
2018-06-20T00:32:45.275Z,22.70
2018-06-20T00:35:12.664Z,22.70
2018-06-20T00:37:40.053Z,22.60
2018-06-20T00:40:07.461Z,22.60
2018-06-20T00:42:34.844Z,22.60
2018-06-20T00:45:02.262Z,22.60
2018-06-20T00:47:29.652Z,22.60
2018-06-20T00:49:57.196Z,22.50
2018-06-20T00:52:24.591Z,22.50
2018-06-20T00:54:52.007Z,22.50
2018-06-20T00:57:19.400Z,22.40
2018-06-20T00:59:46.815Z,22.30
2018-06-20T01:02:14.223Z,22.20
2018-06-20T01:04:41.607Z,22.20
2018-06-20T01:07:09.001Z,22.10
2018-06-20T01:09:36.397Z,22.00
2018-06-20T01:12:03.827Z,21.90
2018-06-20T01:14:31.217Z,21.80
2018-06-20T01:16:58.630Z,21.80
2018-06-20T01:19:26.004Z,21.70
2018-06-20T01:21:53.390Z,21.70
2018-06-20T01:24:20.766Z,21.60
2018-06-20T01:26:48.167Z,21.50
2018-06-20T01:29:15.558Z,21.50
2018-06-20T01:31:42.969Z,21.40
2018-06-20T01:34:10.396Z,21.30
2018-06-20T01:36:37.789Z,21.30
2018-06-20T01:39:07.559Z,21.20
2018-06-20T01:41:34.951Z,21.20
2018-06-20T01:44:02.919Z,21.10
2018-06-20T01:46:30.339Z,21.10
2018-06-20T01:48:57.737Z,21.00
2018-06-20T01:51:25.155Z,21.00
2018-06-20T01:53:52.631Z,20.90
2018-06-20T01:56:20.069Z,20.90
2018-06-20T01:58:47.524Z,20.80
2018-06-20T02:01:14.931Z,20.80
2018-06-20T02:03:42.330Z,20.70
2018-06-20T02:06:09.752Z,20.70
2018-06-20T02:08:37.211Z,20.70
2018-06-20T02:11:04.650Z,20.60
2018-06-20T02:13:32.087Z,20.60
2018-06-20T02:15:59.498Z,20.50
2018-06-20T02:18:26.887Z,20.50
2018-06-20T02:20:54.304Z,20.50
2018-06-20T02:23:21.700Z,20.40
2018-06-20T02:25:49.120Z,20.40
2018-06-20T02:28:16.556Z,20.40
2018-06-20T02:30:43.949Z,20.30
2018-06-20T02:33:11.421Z,20.30
2018-06-20T02:35:38.803Z,20.30
2018-06-20T02:38:06.216Z,20.30
2018-06-20T02:40:33.588Z,20.20
2018-06-20T02:43:01.003Z,20.20
2018-06-20T02:45:28.432Z,20.20
2018-06-20T02:47:58.001Z,20.10
2018-06-20T02:50:25.425Z,20.10
2018-06-20T02:52:52.895Z,20.10
2018-06-20T02:55:20.340Z,20.10
2018-06-20T02:57:47.758Z,20.00
2018-06-20T03:00:15.192Z,20.00
2018-06-20T03:02:42.594Z,20.00
2018-06-20T03:05:10.023Z,19.90
2018-06-20T03:10:15.577Z,19.90
2018-06-20T03:12:42.981Z,19.90
2018-06-20T03:15:10.405Z,19.80
2018-06-20T03:17:37.847Z,19.70
2018-06-20T03:20:05.501Z,19.80
2018-06-20T03:22:32.888Z,19.70
2018-06-20T03:25:00.336Z,19.70
2018-06-20T03:27:27.795Z,19.70
2018-06-20T03:29:55.267Z,19.70
2018-06-20T03:32:22.669Z,19.70
2018-06-20T03:34:50.099Z,19.60
2018-06-20T03:37:17.539Z,19.50
2018-06-20T03:39:44.951Z,19.60
2018-06-20T03:42:12.332Z,19.60
2018-06-20T03:44:39.710Z,19.60
2018-06-20T03:47:07.123Z,19.50
2018-06-20T03:49:34.506Z,19.50
2018-06-20T03:52:01.928Z,19.50
2018-06-20T03:54:29.380Z,19.50
2018-06-20T03:56:56.765Z,19.50
2018-06-20T03:59:24.174Z,19.50
2018-06-20T04:01:51.578Z,19.50
2018-06-20T04:04:18.995Z,19.50
2018-06-20T04:06:46.422Z,19.50
2018-06-20T04:09:13.832Z,19.50
2018-06-20T04:11:41.886Z,19.50
2018-06-20T04:14:09.847Z,19.50
2018-06-20T04:16:37.470Z,19.50
2018-06-20T04:19:04.947Z,19.50
2018-06-20T04:21:32.361Z,19.60
2018-06-20T04:23:59.746Z,19.60
2018-06-20T04:26:27.185Z,19.60
2018-06-20T04:28:54.594Z,19.60
2018-06-20T04:31:21.997Z,19.60
2018-06-20T04:33:49.375Z,19.60
2018-06-20T04:36:16.777Z,19.70
2018-06-20T04:38:44.162Z,19.70
2018-06-20T04:43:38.947Z,19.70
2018-06-20T04:46:06.463Z,19.80
2018-06-20T04:48:33.847Z,19.80
2018-06-20T04:51:01.228Z,19.80
2018-06-20T04:53:28.628Z,19.90
2018-06-20T04:55:56.032Z,19.90
2018-06-20T04:58:23.423Z,20.00
2018-06-20T05:00:50.832Z,20.00
2018-06-20T05:03:18.259Z,20.00
2018-06-20T05:05:45.695Z,20.10
2018-06-20T05:08:13.107Z,20.20
2018-06-20T05:10:40.543Z,20.30
2018-06-20T05:13:07.938Z,20.40
2018-06-20T05:15:35.339Z,20.50
2018-06-20T05:18:02.909Z,20.60
2018-06-20T05:20:30.337Z,20.70
2018-06-20T05:22:57.785Z,20.90
2018-06-20T05:25:25.194Z,21.00
2018-06-20T05:27:52.646Z,21.00
2018-06-20T05:30:20.039Z,21.10
2018-06-20T05:32:47.487Z,21.20
2018-06-20T05:35:14.899Z,21.30
2018-06-20T05:37:42.991Z,21.30
2018-06-20T05:40:10.473Z,21.40
2018-06-20T05:42:37.891Z,21.50
2018-06-20T05:45:05.345Z,21.50
2018-06-20T05:47:32.740Z,21.60
2018-06-20T05:50:00.202Z,21.70
2018-06-20T05:54:55.012Z,21.80
2018-06-20T05:57:22.385Z,21.80
2018-06-20T05:59:49.777Z,21.90
2018-06-20T06:02:17.194Z,22.00
2018-06-20T06:04:44.579Z,22.10
2018-06-20T06:07:11.971Z,22.10
2018-06-20T06:09:39.388Z,22.20
2018-06-20T06:12:06.976Z,22.30
2018-06-20T06:14:34.615Z,22.30
2018-06-20T06:17:02.051Z,22.40
2018-06-20T06:19:29.436Z,22.50
2018-06-20T06:21:56.828Z,22.50
2018-06-20T06:24:24.362Z,22.60
2018-06-20T06:26:51.769Z,22.70
2018-06-20T06:29:19.265Z,22.80
2018-06-20T06:31:46.922Z,22.80
2018-06-20T06:34:14.338Z,22.90
2018-06-20T06:36:41.814Z,22.90
2018-06-20T06:39:10.727Z,23.00
2018-06-20T06:41:38.157Z,23.00
2018-06-20T06:44:05.623Z,23.00
2018-06-20T06:46:33.307Z,23.00
2018-06-20T06:49:00.735Z,23.20
2018-06-20T06:51:28.178Z,23.30
2018-06-20T06:53:55.577Z,23.30
2018-06-20T06:56:23.019Z,23.40
2018-06-20T06:58:50.424Z,23.50
2018-06-20T07:01:17.813Z,23.50
2018-06-20T07:03:45.223Z,23.60
2018-06-20T07:06:12.613Z,23.70
2018-06-20T07:08:40.044Z,23.90
2018-06-20T07:11:07.696Z,24.10
2018-06-20T07:13:35.116Z,24.30
2018-06-20T07:16:02.565Z,24.50
2018-06-20T07:18:30.028Z,24.60
2018-06-20T07:20:57.416Z,24.70
2018-06-20T07:23:24.807Z,24.80
2018-06-20T07:25:52.233Z,24.80
2018-06-20T07:28:19.674Z,24.80
2018-06-20T07:30:47.223Z,24.80
2018-06-20T07:33:14.633Z,24.80
2018-06-20T07:38:09.503Z,24.70
2018-06-20T07:40:36.979Z,24.60
2018-06-20T07:43:04.363Z,24.60
2018-06-20T07:45:31.761Z,24.50
2018-06-20T07:47:59.353Z,24.40
2018-06-20T07:50:26.608Z,24.40
2018-06-20T07:52:54.004Z,24.30
2018-06-20T07:55:21.430Z,24.30
2018-06-20T07:57:48.827Z,24.30
2018-06-20T08:00:26.512Z,24.30
2018-06-20T08:03:12.545Z,24.30
2018-06-20T08:06:43.495Z,24.20
2018-06-20T08:09:16.696Z,24.20
2018-06-20T08:11:49.790Z,24.20
2018-06-20T08:14:22.928Z,24.10
2018-06-20T08:16:56.065Z,24.10
2018-06-20T08:19:58.724Z,24.10
2018-06-20T08:22:27.295Z,24.20
2018-06-20T08:25:03.812Z,24.20
2018-06-20T08:27:32.646Z,24.20
2018-06-20T08:30:01.792Z,24.30
2018-06-20T08:32:29.399Z,24.20
2018-06-20T08:34:57.359Z,24.20
2018-06-20T08:37:24.875Z,24.20
2018-06-20T08:39:52.280Z,24.20
2018-06-20T08:42:19.984Z,24.20
2018-06-20T08:44:47.487Z,24.20
2018-06-20T08:47:14.871Z,24.20
2018-06-20T08:49:42.304Z,24.30
2018-06-20T08:52:09.758Z,24.30
2018-06-20T08:54:37.151Z,24.50
2018-06-20T08:57:04.702Z,24.50
2018-06-20T08:59:32.139Z,24.60
2018-06-20T09:01:59.588Z,24.70
2018-06-20T09:04:32.873Z,24.80
2018-06-20T09:07:06.027Z,24.90
2018-06-20T09:09:39.103Z,25.00
2018-06-20T09:12:12.237Z,25.20
2018-06-20T09:14:45.409Z,25.30
2018-06-20T09:17:18.421Z,25.40
2018-06-20T09:19:47.364Z,25.50
2018-06-20T09:22:15.925Z,25.60
2018-06-20T09:24:43.493Z,25.70
2018-06-20T09:27:10.968Z,25.70
2018-06-20T09:29:38.355Z,25.80
2018-06-20T09:32:06.157Z,25.80
2018-06-20T09:34:33.543Z,25.80
2018-06-20T09:37:01.167Z,25.80
2018-06-20T09:39:28.723Z,25.90
2018-06-20T09:41:56.167Z,25.90
2018-06-20T09:44:23.653Z,25.90
2018-06-20T09:46:51.068Z,25.80
2018-06-20T09:49:18.478Z,25.90
2018-06-20T09:51:47.562Z,25.90
2018-06-20T09:54:15.150Z,25.90
2018-06-20T09:56:42.561Z,25.90
2018-06-20T09:59:15.712Z,25.90
2018-06-20T10:01:48.869Z,25.90
2018-06-20T10:04:22.140Z,25.80
2018-06-20T10:06:55.379Z,25.80
2018-06-20T10:09:28.576Z,25.90
2018-06-20T10:12:01.720Z,25.90
2018-06-20T10:14:29.237Z,26.00
2018-06-20T10:16:56.625Z,26.10
2018-06-20T10:19:25.041Z,26.10
2018-06-20T10:21:52.686Z,26.30
2018-06-20T10:24:20.172Z,26.30
2018-06-20T10:26:47.615Z,26.50
2018-06-20T10:29:15.028Z,26.60
2018-06-20T10:31:42.446Z,26.80
2018-06-20T10:34:09.909Z,26.90
2018-06-20T10:36:37.278Z,27.10
2018-06-20T10:39:06.686Z,27.20
2018-06-20T10:41:37.873Z,27.40
2018-06-20T10:44:12.475Z,27.50
2018-06-20T10:46:45.984Z,27.60
2018-06-20T10:49:14.401Z,27.80
2018-06-20T10:51:42.232Z,27.90
2018-06-20T10:54:09.693Z,28.00
2018-06-20T10:56:42.879Z,28.10
2018-06-20T10:59:16.509Z,28.30
2018-06-20T11:01:49.579Z,28.50
2018-06-20T11:04:22.809Z,28.60
2018-06-20T11:06:55.977Z,28.70
2018-06-20T11:09:29.279Z,28.60
2018-06-20T11:12:02.363Z,28.90
2018-06-20T11:14:29.771Z,29.00
2018-06-20T11:16:57.177Z,29.20
2018-06-20T11:19:24.685Z,29.30
2018-06-20T11:21:52.111Z,29.40
2018-06-20T11:24:19.509Z,29.50
2018-06-20T11:26:46.912Z,29.60
2018-06-20T11:29:14.813Z,29.70
2018-06-20T11:31:42.300Z,29.80
2018-06-20T11:34:09.730Z,29.90
2018-06-20T11:36:37.152Z,29.90
2018-06-20T11:39:06.892Z,29.90
2018-06-20T11:41:34.301Z,29.90
2018-06-20T11:44:01.725Z,29.80
2018-06-20T11:46:34.814Z,29.70
2018-06-20T11:49:02.255Z,29.50
2018-06-20T11:51:29.711Z,29.40
2018-06-20T11:53:57.129Z,29.30
2018-06-20T11:56:24.770Z,29.20
2018-06-20T11:58:57.804Z,29.10
2018-06-20T12:01:31.040Z,29.20
2018-06-20T12:04:04.293Z,29.10
2018-06-20T12:06:37.453Z,29.10
2018-06-20T12:09:11.258Z,29.20
2018-06-20T12:11:44.735Z,29.20
2018-06-20T12:14:18.037Z,29.10
2018-06-20T12:16:48.368Z,29.20
2018-06-20T12:19:22.343Z,29.20
2018-06-20T12:21:55.569Z,29.20
2018-06-20T12:24:28.864Z,29.20
2018-06-20T12:27:01.928Z,29.20
2018-06-20T12:29:35.145Z,29.20
2018-06-20T12:32:08.339Z,29.20
2018-06-20T12:34:41.903Z,29.30
2018-06-20T12:37:15.017Z,29.30
2018-06-20T12:39:41.973Z,29.40
2018-06-20T12:44:48.636Z,29.50
2018-06-20T12:47:21.132Z,29.50
2018-06-20T12:50:00.759Z,29.50
2018-06-20T12:52:28.320Z,29.50
2018-06-20T12:54:55.716Z,29.60
2018-06-20T12:57:23.152Z,29.60
2018-06-20T12:59:50.590Z,29.60
2018-06-20T13:02:18.017Z,29.70
2018-06-20T13:04:45.451Z,29.70
2018-06-20T13:07:12.876Z,29.80
2018-06-20T13:09:40.334Z,29.80
2018-06-20T13:12:08.297Z,29.90
2018-06-20T13:14:35.745Z,29.90
2018-06-20T13:17:03.188Z,30.00
2018-06-20T13:19:30.670Z,30.10
2018-06-20T13:21:58.160Z,30.20
2018-06-20T13:24:26.090Z,30.30
2018-06-20T13:26:53.608Z,30.40
2018-06-20T13:29:21.037Z,30.40
2018-06-20T13:31:54.156Z,30.50
2018-06-20T13:34:27.509Z,30.60
2018-06-20T13:37:00.800Z,30.60
2018-06-20T13:39:34.090Z,30.70
2018-06-20T13:42:04.671Z,30.80
2018-06-20T13:44:32.158Z,30.80
2018-06-20T13:47:05.219Z,30.90
2018-06-20T13:49:32.846Z,31.00
2018-06-20T13:52:00.348Z,31.00
2018-06-20T13:54:27.821Z,31.00
2018-06-20T13:59:23.217Z,31.10
2018-06-20T14:01:50.695Z,31.10
2018-06-20T14:04:18.162Z,31.10
2018-06-20T14:06:45.588Z,31.20
2018-06-20T14:09:13.094Z,31.20
2018-06-20T14:11:41.309Z,31.30
2018-06-20T14:14:08.768Z,31.30
2018-06-20T14:16:36.210Z,31.30
2018-06-20T14:19:03.871Z,31.40
2018-06-20T14:21:36.487Z,31.50
2018-06-20T14:24:04.759Z,31.50
2018-06-20T14:26:32.144Z,31.50
2018-06-20T14:28:59.615Z,31.60
2018-06-20T14:31:32.679Z,31.60
2018-06-20T14:34:05.895Z,31.60
2018-06-20T14:36:39.019Z,31.70
2018-06-20T14:39:13.496Z,31.70
2018-06-20T14:41:47.178Z,31.70
2018-06-20T14:44:14.728Z,31.80
2018-06-20T14:46:42.159Z,31.90
2018-06-20T14:49:09.587Z,31.90
2018-06-20T14:51:37.032Z,32.00
2018-06-20T14:54:04.453Z,32.00
2018-06-20T14:56:31.967Z,32.10
2018-06-20T14:58:59.404Z,32.10
2018-06-20T15:01:26.815Z,32.10
2018-06-20T15:03:54.245Z,32.10
2018-06-20T15:06:21.988Z,32.10
2018-06-20T15:08:49.435Z,32.10
2018-06-20T15:11:16.946Z,32.10
2018-06-20T15:13:44.316Z,32.00
2018-06-20T15:16:17.306Z,32.10
2018-06-20T15:18:45.058Z,32.10
2018-06-20T15:21:12.541Z,32.10
2018-06-20T15:23:39.989Z,31.80
2018-06-20T15:26:13.204Z,32.10
2018-06-20T15:28:46.267Z,32.10
2018-06-20T15:31:19.483Z,32.20
2018-06-20T15:33:52.658Z,32.20
2018-06-20T15:36:26.186Z,32.20
2018-06-20T15:38:53.605Z,32.20
2018-06-20T15:41:21.107Z,32.10
2018-06-20T15:43:48.561Z,32.30
2018-06-20T15:46:15.984Z,32.30
2018-06-20T15:48:43.395Z,32.30
2018-06-20T15:51:10.880Z,32.30
2018-06-20T15:53:38.355Z,32.30
2018-06-20T15:58:33.205Z,32.40
2018-06-20T16:01:00.649Z,32.40
2018-06-20T16:03:28.079Z,32.50
2018-06-20T16:05:55.473Z,32.40
2018-06-20T16:08:22.919Z,32.40
2018-06-20T16:10:50.420Z,32.40
2018-06-20T16:13:18.444Z,32.50
2018-06-20T16:15:45.919Z,32.40
2018-06-20T16:18:13.388Z,32.40
2018-06-20T16:20:46.529Z,32.40
2018-06-20T16:23:19.779Z,32.40
2018-06-20T16:28:26.222Z,32.50
2018-06-20T16:30:53.632Z,32.40
2018-06-20T16:33:21.107Z,32.40
2018-06-20T16:35:48.615Z,32.30
2018-06-20T16:38:16.160Z,32.30
2018-06-20T16:40:43.544Z,32.30
2018-06-20T16:43:11.008Z,32.30
2018-06-20T16:45:38.423Z,32.30
2018-06-20T16:48:05.848Z,32.20
2018-06-20T16:50:33.255Z,32.20
2018-06-20T16:53:00.651Z,32.20
2018-06-20T16:57:55.459Z,32.10
2018-06-20T17:00:22.897Z,32.10
2018-06-20T17:02:50.716Z,32.00
2018-06-20T17:05:18.121Z,32.00
2018-06-20T17:07:45.545Z,32.00
2018-06-20T17:10:12.958Z,32.10
2018-06-20T17:12:46.261Z,32.10
2018-06-20T17:17:52.648Z,32.30
2018-06-20T17:20:26.189Z,32.30
2018-06-20T17:22:59.522Z,32.30
2018-06-20T17:25:30.363Z,32.40
2018-06-20T17:27:57.814Z,32.40
2018-06-20T17:30:25.381Z,32.40
2018-06-20T17:32:53.001Z,32.60
2018-06-20T17:35:20.454Z,32.60
2018-06-20T17:37:47.860Z,32.70
2018-06-20T17:40:15.358Z,32.80
2018-06-20T17:42:42.813Z,33.00
2018-06-20T17:45:10.222Z,32.90
2018-06-20T17:47:37.658Z,33.00
2018-06-20T17:50:05.155Z,33.00
2018-06-20T17:52:32.555Z,33.00
2018-06-20T17:54:59.968Z,33.00
2018-06-20T17:57:27.379Z,33.00
2018-06-20T17:59:54.795Z,33.10
2018-06-20T18:02:22.225Z,33.10
2018-06-20T18:04:55.202Z,33.20
2018-06-20T18:07:28.289Z,33.30
2018-06-20T18:10:01.488Z,33.30
2018-06-20T18:12:34.515Z,33.40
2018-06-20T18:15:07.676Z,33.40
2018-06-20T18:17:35.156Z,33.30
2018-06-20T18:20:02.621Z,33.30
2018-06-20T18:22:30.047Z,33.20
2018-06-20T18:24:57.475Z,33.10
2018-06-20T18:27:24.916Z,33.00
2018-06-20T18:29:52.377Z,32.80
2018-06-20T18:32:19.823Z,32.70
2018-06-20T18:34:47.327Z,32.60
2018-06-20T18:37:14.884Z,32.50
2018-06-20T18:39:48.043Z,32.40
2018-06-20T18:42:15.371Z,32.30
2018-06-20T18:44:43.596Z,32.30
2018-06-20T18:47:15.769Z,32.20
2018-06-20T18:49:43.467Z,32.00
2018-06-20T18:52:11.381Z,31.90
2018-06-20T18:54:38.826Z,31.70
2018-06-20T18:57:10.917Z,31.60
2018-06-20T18:59:44.003Z,31.50
2018-06-20T19:02:17.205Z,31.40
2018-06-20T19:04:50.265Z,31.30
2018-06-20T19:07:23.473Z,31.20
2018-06-20T19:09:50.978Z,31.10
2018-06-20T19:12:18.328Z,31.00
2018-06-20T19:14:45.737Z,30.90
2018-06-20T19:17:13.136Z,30.90
2018-06-20T19:19:40.605Z,30.80
2018-06-20T19:22:08.063Z,30.70
2018-06-20T19:24:35.481Z,30.60
2018-06-20T19:29:30.363Z,30.40
2018-06-20T19:34:25.173Z,29.90
2018-06-20T19:36:52.597Z,29.70
2018-06-20T19:39:25.898Z,29.40
2018-06-20T19:41:53.293Z,29.20
2018-06-20T19:44:26.365Z,28.90
2018-06-20T19:46:54.044Z,28.60
2018-06-20T19:49:21.468Z,28.40
2018-06-20T19:51:48.949Z,28.30
2018-06-20T19:54:16.360Z,28.10
2018-06-20T19:59:11.121Z,27.70
2018-06-20T20:01:38.622Z,27.60
2018-06-20T20:04:06.089Z,27.40
2018-06-20T20:06:33.464Z,27.30
2018-06-20T20:09:00.871Z,27.10
2018-06-20T20:11:28.239Z,27.00
2018-06-20T20:16:23.037Z,26.80
2018-06-20T20:18:50.444Z,26.70
2018-06-20T20:21:17.830Z,26.60
2018-06-20T20:23:45.360Z,26.50
2018-06-20T20:26:12.794Z,26.40
2018-06-20T20:31:07.792Z,26.20
2018-06-20T20:33:35.457Z,26.10
2018-06-20T20:36:02.884Z,26.00
2018-06-20T20:38:30.676Z,26.00
2018-06-20T20:40:58.063Z,25.90
2018-06-20T20:43:25.480Z,25.80
2018-06-20T20:45:52.948Z,25.70
2018-06-20T20:48:20.399Z,25.60
2018-06-20T20:50:47.845Z,25.50
2018-06-20T20:53:15.641Z,25.40
2018-06-20T20:55:43.390Z,25.30
2018-06-20T20:58:10.928Z,25.30
2018-06-20T21:00:38.604Z,25.20
2018-06-20T21:03:06.014Z,25.20
2018-06-20T21:05:33.415Z,25.10
2018-06-20T21:08:01.731Z,25.00
2018-06-20T21:10:29.127Z,24.90
2018-06-20T21:12:56.584Z,24.90
2018-06-20T21:15:23.997Z,24.80
2018-06-20T21:17:51.405Z,24.70
2018-06-20T21:20:18.924Z,24.70
2018-06-20T21:22:46.328Z,24.60
2018-06-20T21:25:13.736Z,24.50
2018-06-20T21:27:41.110Z,24.50
2018-06-20T21:30:08.474Z,24.40
2018-06-20T21:32:35.861Z,24.40
2018-06-20T21:35:03.246Z,24.30
2018-06-20T21:37:30.643Z,24.20
2018-06-20T21:42:25.400Z,24.10
2018-06-20T21:44:52.754Z,24.10
2018-06-20T21:47:20.139Z,24.00
2018-06-20T21:49:47.548Z,24.00
2018-06-20T21:52:15.252Z,23.90
2018-06-20T21:54:42.666Z,23.90
2018-06-20T21:59:37.407Z,23.80
2018-06-20T22:02:04.796Z,23.70
2018-06-20T22:04:32.248Z,23.60
2018-06-20T22:06:59.684Z,23.60
2018-06-20T22:09:27.101Z,23.60
2018-06-20T22:11:54.478Z,23.50
2018-06-20T22:14:21.880Z,23.50
2018-06-20T22:19:16.687Z,23.40
2018-06-20T22:21:44.127Z,23.30
2018-06-20T22:24:11.523Z,23.30
2018-06-20T22:26:38.964Z,23.20
2018-06-20T22:29:06.399Z,23.20
2018-06-20T22:31:33.865Z,23.10
2018-06-20T22:34:01.284Z,23.10
2018-06-20T22:36:28.757Z,23.10
2018-06-20T22:38:56.241Z,23.00
2018-06-20T22:41:23.806Z,23.00
2018-06-20T22:43:51.233Z,22.90
2018-06-20T22:46:18.744Z,22.90
2018-06-20T22:48:46.213Z,22.90
2018-06-20T22:51:13.669Z,22.80
2018-06-20T22:53:41.256Z,22.80
2018-06-20T22:56:09.022Z,22.80
2018-06-20T22:58:36.696Z,22.70
2018-06-20T23:01:04.180Z,22.70
2018-06-20T23:03:31.635Z,22.60
2018-06-20T23:05:59.141Z,22.60
2018-06-20T23:08:26.624Z,22.60
2018-06-20T23:10:54.103Z,22.50
2018-06-20T23:13:21.625Z,22.50
2018-06-20T23:15:49.140Z,22.40
2018-06-20T23:18:16.602Z,22.40
2018-06-20T23:20:44.621Z,22.40
2018-06-20T23:23:12.111Z,22.30
2018-06-20T23:25:39.689Z,22.30
2018-06-20T23:28:07.310Z,22.30
2018-06-20T23:33:02.326Z,22.20
2018-06-20T23:35:29.792Z,22.10
2018-06-20T23:37:57.242Z,22.10
2018-06-20T23:40:25.147Z,22.10
2018-06-20T23:42:52.624Z,22.10
2018-06-20T23:45:20.132Z,22.00
2018-06-20T23:47:47.593Z,22.00
2018-06-20T23:50:15.052Z,22.00
2018-06-20T23:52:42.554Z,21.90
2018-06-20T23:55:10.058Z,21.90
2018-06-20T23:57:37.517Z,21.90
